createdAt,value
2022-09-21T00:01:06.766Z,99.90
2022-09-21T00:03:33.510Z,99.90
2022-09-21T00:06:06.731Z,99.90
2022-09-21T00:08:33.682Z,99.90
2022-09-21T00:11:01.005Z,99.90
2022-09-21T00:13:28.330Z,99.90
2022-09-21T00:15:55.757Z,99.90
2022-09-21T00:18:22.766Z,99.90
2022-09-21T00:20:49.479Z,99.90
2022-09-21T00:23:16.115Z,99.90
2022-09-21T00:25:42.720Z,99.90
2022-09-21T00:28:09.316Z,99.90
2022-09-21T00:30:36.946Z,99.90
2022-09-21T00:33:03.661Z,99.90
2022-09-21T00:35:30.285Z,99.90
2022-09-21T00:38:00.583Z,99.90
2022-09-21T00:40:27.209Z,99.90
2022-09-21T00:42:53.836Z,99.90
2022-09-21T00:45:23.097Z,99.90
2022-09-21T00:47:52.073Z,99.90
2022-09-21T00:50:20.226Z,99.90
2022-09-21T00:52:49.214Z,99.90
2022-09-21T00:55:15.778Z,99.90
2022-09-21T00:57:43.198Z,99.90
2022-09-21T01:00:10.188Z,99.90
2022-09-21T01:02:37.048Z,99.90
2022-09-21T01:05:07.832Z,99.90
2022-09-21T01:07:36.797Z,99.90
2022-09-21T01:10:09.286Z,99.90
2022-09-21T01:12:41.672Z,99.90
2022-09-21T01:15:11.337Z,99.90
2022-09-21T01:17:37.938Z,99.90
2022-09-21T01:20:11.177Z,99.90
2022-09-21T01:22:56.562Z,99.90
2022-09-21T01:25:33.768Z,99.90
2022-09-21T01:28:12.564Z,99.90
2022-09-21T01:30:39.967Z,99.90
2022-09-21T01:33:12.916Z,99.90
2022-09-21T01:35:42.601Z,99.90
2022-09-21T01:38:12.669Z,99.90
2022-09-21T01:40:42.154Z,99.90
2022-09-21T01:43:10.601Z,99.90
2022-09-21T01:45:40.795Z,99.90
2022-09-21T01:48:08.104Z,99.90
2022-09-21T01:50:38.345Z,99.90
2022-09-21T01:53:09.863Z,99.90
2022-09-21T01:55:40.163Z,99.90
2022-09-21T01:58:12.138Z,99.90
2022-09-21T02:00:40.167Z,99.90
2022-09-21T02:03:12.961Z,99.90
2022-09-21T02:05:40.270Z,99.90
2022-09-21T02:08:07.448Z,99.90
2022-09-21T02:10:36.793Z,99.90
2022-09-21T02:13:06.833Z,99.90
2022-09-21T02:16:08.895Z,99.90
2022-09-21T02:18:57.610Z,99.90
2022-09-21T02:21:42.690Z,99.90
2022-09-21T02:24:28.043Z,99.90
2022-09-21T02:27:13.278Z,99.90
2022-09-21T02:29:39.738Z,99.90
2022-09-21T02:32:09.156Z,99.90
2022-09-21T02:34:45.646Z,99.90
2022-09-21T02:37:19.555Z,99.90
2022-09-21T02:39:50.394Z,99.90
2022-09-21T02:42:20.388Z,99.90
2022-09-21T02:44:50.423Z,99.90
2022-09-21T02:47:19.926Z,99.90
2022-09-21T02:49:51.897Z,99.90
2022-09-21T02:52:19.919Z,99.90
2022-09-21T02:54:48.590Z,99.90
2022-09-21T02:57:16.763Z,99.90
2022-09-21T02:59:43.799Z,99.90
2022-09-21T03:02:12.373Z,99.90
2022-09-21T03:04:41.170Z,99.90
2022-09-21T03:07:08.335Z,99.90
2022-09-21T03:09:35.070Z,99.90
2022-09-21T03:12:01.833Z,99.90
2022-09-21T03:14:28.330Z,99.90
2022-09-21T03:16:54.794Z,99.90
2022-09-21T03:19:21.267Z,99.90
2022-09-21T03:21:47.910Z,99.90
2022-09-21T03:24:34.385Z,99.90
2022-09-21T03:27:00.890Z,99.90
2022-09-21T03:29:27.394Z,99.90
2022-09-21T03:31:55.967Z,99.90
2022-09-21T03:34:22.842Z,99.90
2022-09-21T03:36:49.408Z,99.90
2022-09-21T03:39:15.902Z,99.90
2022-09-21T03:41:42.387Z,99.90
2022-09-21T03:44:08.857Z,99.90
2022-09-21T03:46:35.385Z,99.90
2022-09-21T03:49:02.915Z,99.90
2022-09-21T03:51:32.564Z,99.90
2022-09-21T03:53:59.058Z,99.90
2022-09-21T03:56:25.546Z,99.90
2022-09-21T03:58:52.101Z,99.90
2022-09-21T04:01:18.678Z,99.90
2022-09-21T04:03:45.195Z,99.90
2022-09-21T04:06:12.289Z,99.90
2022-09-21T04:08:38.999Z,99.90
2022-09-21T04:11:12.797Z,99.90
2022-09-21T04:13:39.438Z,99.90
2022-09-21T04:16:05.997Z,99.90
2022-09-21T04:18:32.702Z,99.90
2022-09-21T04:20:59.200Z,99.90
2022-09-21T04:23:25.695Z,99.90
2022-09-21T04:25:53.985Z,99.90
2022-09-21T04:28:20.591Z,99.90
2022-09-21T04:30:47.120Z,99.90
2022-09-21T04:33:14.137Z,99.90
2022-09-21T04:35:41.035Z,99.90
2022-09-21T04:38:07.655Z,99.90
2022-09-21T04:40:34.178Z,99.90
2022-09-21T04:43:00.890Z,99.90
2022-09-21T04:45:27.378Z,99.90
2022-09-21T04:47:53.871Z,99.90
2022-09-21T04:50:20.371Z,99.90
2022-09-21T04:52:47.611Z,99.90
2022-09-21T04:55:14.163Z,99.90
2022-09-21T04:57:40.662Z,99.90
2022-09-21T05:00:07.451Z,99.90
2022-09-21T05:02:34.026Z,99.90
2022-09-21T05:05:00.562Z,99.90
2022-09-21T05:07:27.042Z,99.90
2022-09-21T05:10:02.620Z,99.90
2022-09-21T05:12:30.001Z,99.90
2022-09-21T05:14:56.473Z,99.90
2022-09-21T05:17:23.227Z,99.90
2022-09-21T05:19:50.355Z,99.90
2022-09-21T05:22:17.151Z,99.90
2022-09-21T05:24:43.679Z,99.90
2022-09-21T05:27:10.242Z,99.90
2022-09-21T05:29:36.920Z,99.90
2022-09-21T05:32:11.483Z,99.90
2022-09-21T05:34:45.406Z,99.90
2022-09-21T05:37:19.958Z,99.90
2022-09-21T05:39:46.619Z,99.90
2022-09-21T05:42:13.337Z,99.90
2022-09-21T05:44:39.974Z,99.90
2022-09-21T05:47:09.253Z,99.90
2022-09-21T05:49:54.558Z,99.90
2022-09-21T05:52:38.274Z,99.90
2022-09-21T05:55:10.977Z,99.90
2022-09-21T05:57:40.539Z,99.90
2022-09-21T06:00:10.175Z,99.90
2022-09-21T06:02:55.630Z,99.90
2022-09-21T06:05:22.418Z,99.90
2022-09-21T06:07:48.927Z,99.90
2022-09-21T06:10:16.145Z,99.90
2022-09-21T06:12:42.675Z,99.90
2022-09-21T06:15:11.847Z,99.90
2022-09-21T06:17:38.356Z,99.90
2022-09-21T06:20:06.815Z,99.90
2022-09-21T06:22:33.742Z,99.90
2022-09-21T06:25:00.238Z,99.90
2022-09-21T06:27:28.114Z,99.90
2022-09-21T06:29:54.678Z,99.90
2022-09-21T06:32:21.222Z,99.90
2022-09-21T06:34:47.735Z,99.90
2022-09-21T06:37:14.239Z,99.90
2022-09-21T06:39:40.787Z,99.90
2022-09-21T06:42:07.419Z,99.90
2022-09-21T06:44:33.905Z,99.90
2022-09-21T06:47:00.461Z,99.90
2022-09-21T06:49:28.663Z,99.90
2022-09-21T06:51:55.789Z,99.90
2022-09-21T06:54:22.339Z,99.90
2022-09-21T06:56:48.897Z,99.90
2022-09-21T06:59:15.403Z,99.90
2022-09-21T07:01:42.057Z,99.90
2022-09-21T07:04:09.346Z,99.90
2022-09-21T07:06:36.131Z,99.90
2022-09-21T07:11:51.871Z,99.90
2022-09-21T07:14:18.354Z,99.90
2022-09-21T07:16:45.094Z,99.90
2022-09-21T07:19:12.169Z,99.90
2022-09-21T07:21:38.936Z,99.90
2022-09-21T07:24:09.491Z,99.90
2022-09-21T07:26:37.724Z,99.90
2022-09-21T07:29:04.262Z,99.90
2022-09-21T07:31:30.822Z,99.90
2022-09-21T07:33:58.705Z,99.90
2022-09-21T07:36:25.230Z,99.90
2022-09-21T07:38:53.878Z,99.90
2022-09-21T07:41:20.484Z,99.90
2022-09-21T07:43:47.248Z,99.90
2022-09-21T07:46:14.872Z,99.90
2022-09-21T07:48:41.462Z,99.90
2022-09-21T07:51:09.887Z,99.90
2022-09-21T07:53:37.638Z,99.90
2022-09-21T07:56:08.640Z,99.90
2022-09-21T07:58:54.023Z,99.90
2022-09-21T08:01:20.660Z,99.90
2022-09-21T08:03:54.169Z,99.90
2022-09-21T08:06:21.161Z,99.90
2022-09-21T08:08:48.170Z,99.90
2022-09-21T08:11:15.655Z,99.90
2022-09-21T08:13:42.146Z,99.90
2022-09-21T08:16:08.859Z,99.90
2022-09-21T08:18:39.712Z,99.90
2022-09-21T08:21:06.838Z,99.90
2022-09-21T08:23:33.800Z,99.90
2022-09-21T08:26:01.961Z,99.90
2022-09-21T08:28:29.313Z,99.90
2022-09-21T08:30:58.854Z,99.90
2022-09-21T08:33:29.242Z,99.90
2022-09-21T08:35:57.952Z,99.90
2022-09-21T08:38:25.067Z,99.90
2022-09-21T08:40:52.097Z,99.90
2022-09-21T08:43:23.175Z,99.90
2022-09-21T08:45:49.671Z,99.90
2022-09-21T08:48:21.897Z,99.90
2022-09-21T08:50:55.814Z,99.90
2022-09-21T08:53:26.900Z,99.90
2022-09-21T08:55:56.009Z,99.90
2022-09-21T08:58:26.726Z,99.90
2022-09-21T09:01:12.092Z,99.90
2022-09-21T09:03:40.921Z,99.90
2022-09-21T09:06:08.187Z,99.90
2022-09-21T09:08:37.416Z,99.90
2022-09-21T09:11:10.031Z,99.90
2022-09-21T09:13:39.491Z,99.90
2022-09-21T09:16:24.341Z,99.90
2022-09-21T09:18:57.476Z,99.90
2022-09-21T09:21:39.093Z,99.90
2022-09-21T09:24:24.143Z,99.90
2022-09-21T09:26:53.880Z,99.90
2022-09-21T09:29:38.940Z,99.90
2022-09-21T09:32:10.857Z,99.90
2022-09-21T09:34:40.319Z,99.90
2022-09-21T09:37:13.660Z,99.90
2022-09-21T09:39:42.182Z,99.90
2022-09-21T09:42:14.936Z,99.90
2022-09-21T09:45:00.562Z,99.90
2022-09-21T09:47:32.804Z,99.90
2022-09-21T09:49:59.279Z,99.90
2022-09-21T09:52:25.868Z,99.90
2022-09-21T09:54:54.574Z,99.90
2022-09-21T09:57:27.103Z,99.90
2022-09-21T09:59:55.498Z,99.90
2022-09-21T10:02:26.363Z,99.90
2022-09-21T10:05:03.528Z,99.90
2022-09-21T10:07:34.031Z,99.90
2022-09-21T10:10:00.529Z,99.90
2022-09-21T10:12:27.876Z,99.90
2022-09-21T10:15:00.656Z,99.90
2022-09-21T10:17:27.464Z,99.90
2022-09-21T10:20:01.064Z,99.90
2022-09-21T10:22:28.251Z,99.90
2022-09-21T10:24:54.991Z,99.90
2022-09-21T10:27:24.607Z,99.90
2022-09-21T10:29:51.130Z,99.90
2022-09-21T10:32:25.236Z,99.90
2022-09-21T10:35:12.888Z,99.90
2022-09-21T10:37:41.359Z,99.90
2022-09-21T10:40:17.134Z,99.90
2022-09-21T10:42:43.989Z,99.90
2022-09-21T10:45:15.218Z,99.90
2022-09-21T10:47:43.956Z,99.90
2022-09-21T10:50:27.498Z,99.90
2022-09-21T10:53:01.601Z,99.90
2022-09-21T10:55:29.175Z,99.90
2022-09-21T10:57:56.560Z,99.90
2022-09-21T11:00:26.132Z,99.90
2022-09-21T11:02:54.862Z,99.90
2022-09-21T11:05:31.396Z,99.90
2022-09-21T11:08:01.609Z,99.90
2022-09-21T11:10:34.541Z,99.90
2022-09-21T11:13:19.970Z,99.90
2022-09-21T11:15:49.526Z,99.90
2022-09-21T11:18:16.060Z,99.90
2022-09-21T11:20:51.698Z,99.90
2022-09-21T11:23:24.227Z,99.90
2022-09-21T11:26:10.596Z,99.90
2022-09-21T11:28:47.843Z,99.90
2022-09-21T11:31:14.581Z,99.90
2022-09-21T11:33:59.755Z,99.90
2022-09-21T11:36:49.808Z,99.90
2022-09-21T11:39:22.473Z,99.90
2022-09-21T11:41:54.923Z,99.90
2022-09-21T11:44:28.083Z,99.90
2022-09-21T11:47:03.554Z,99.90
2022-09-21T11:49:48.419Z,99.90
2022-09-21T11:52:33.765Z,99.90
2022-09-21T11:55:00.535Z,99.90
2022-09-21T11:57:29.574Z,99.90
2022-09-21T12:00:02.034Z,99.90
2022-09-21T12:05:19.557Z,99.90
2022-09-21T12:07:58.222Z,99.90
2022-09-21T12:10:38.946Z,99.90
2022-09-21T12:13:17.025Z,99.90
2022-09-21T12:16:03.010Z,99.90
2022-09-21T12:18:29.497Z,99.90
2022-09-21T12:21:00.278Z,99.90
2022-09-21T12:23:30.645Z,99.90
2022-09-21T12:25:58.608Z,99.90
2022-09-21T12:28:34.614Z,99.90
2022-09-21T12:31:04.857Z,99.90
2022-09-21T12:33:35.485Z,99.90
2022-09-21T12:36:05.730Z,99.90
2022-09-21T12:38:40.054Z,99.90
2022-09-21T12:41:09.303Z,99.90
2022-09-21T12:43:55.270Z,99.90
2022-09-21T12:46:25.198Z,99.90
2022-09-21T12:48:52.889Z,99.90
2022-09-21T12:51:24.583Z,99.90
2022-09-21T12:53:52.864Z,99.90
2022-09-21T12:56:28.434Z,99.90
2022-09-21T12:58:55.201Z,99.90
2022-09-21T13:01:21.863Z,99.90
2022-09-21T13:03:53.187Z,99.90
2022-09-21T13:06:43.309Z,99.90
2022-09-21T13:09:16.034Z,99.90
2022-09-21T13:12:08.943Z,99.90
2022-09-21T13:14:41.078Z,99.90
2022-09-21T13:17:17.443Z,99.90
2022-09-21T13:19:43.943Z,99.90
2022-09-21T13:22:21.720Z,99.90
2022-09-21T13:25:01.193Z,99.90
2022-09-21T13:27:46.430Z,99.90
2022-09-21T13:30:42.599Z,99.90
2022-09-21T13:33:17.993Z,99.90
2022-09-21T13:35:50.850Z,99.90
2022-09-21T13:38:47.868Z,99.90
2022-09-21T13:41:17.382Z,99.90
2022-09-21T13:43:49.199Z,99.90
2022-09-21T13:46:34.251Z,99.90
2022-09-21T13:49:03.494Z,99.90
2022-09-21T13:51:33.258Z,99.90
2022-09-21T13:54:01.990Z,99.90
2022-09-21T13:56:28.881Z,99.90
2022-09-21T13:58:57.390Z,99.90
2022-09-21T14:01:46.690Z,99.90
2022-09-21T14:04:26.616Z,99.90
2022-09-21T14:06:54.310Z,99.90
2022-09-21T14:09:26.038Z,99.90
2022-09-21T14:11:55.143Z,99.90
2022-09-21T14:14:30.521Z,99.90
2022-09-21T14:16:58.356Z,99.90
2022-09-21T14:19:29.623Z,99.90
2022-09-21T14:22:08.485Z,99.90
2022-09-21T14:24:40.932Z,99.90
2022-09-21T14:27:13.425Z,99.70
2022-09-21T14:29:39.899Z,99.90
2022-09-21T14:32:11.804Z,98.20
2022-09-21T14:34:39.414Z,99.90
2022-09-21T14:37:27.565Z,99.20
2022-09-21T14:39:54.611Z,99.90
2022-09-21T14:42:27.758Z,97.40
2022-09-21T14:45:01.237Z,99.90
2022-09-21T14:47:51.907Z,99.90
2022-09-21T14:50:24.480Z,99.90
2022-09-21T14:53:07.353Z,98.10
2022-09-21T14:55:49.660Z,95.60
2022-09-21T14:58:19.354Z,96.20
2022-09-21T15:00:49.895Z,93.00
2022-09-21T15:03:24.307Z,96.50
2022-09-21T15:06:37.545Z,96.40
2022-09-21T15:09:41.347Z,92.60
2022-09-21T15:12:11.436Z,95.30
2022-09-21T15:14:41.249Z,93.30
2022-09-21T15:17:29.734Z,96.10
2022-09-21T15:20:00.820Z,94.50
2022-09-21T15:22:27.812Z,95.30
2022-09-21T15:24:56.264Z,94.50
2022-09-21T15:27:23.933Z,91.60
2022-09-21T15:29:53.055Z,93.70
2022-09-21T15:32:25.822Z,91.30
2022-09-21T15:35:01.235Z,94.90
2022-09-21T15:37:28.400Z,94.50
2022-09-21T15:40:01.963Z,92.90
2022-09-21T15:42:29.976Z,91.70
2022-09-21T15:45:09.947Z,92.20
2022-09-21T15:47:37.104Z,93.60
2022-09-21T15:50:03.951Z,90.60
2022-09-21T15:52:32.845Z,92.20
2022-09-21T15:55:01.217Z,91.10
2022-09-21T15:57:38.619Z,91.00
2022-09-21T16:00:15.227Z,91.90
2022-09-21T16:02:42.941Z,90.80
2022-09-21T16:05:16.380Z,91.40
2022-09-21T16:07:45.817Z,89.30
2022-09-21T16:10:30.584Z,88.80
2022-09-21T16:13:01.507Z,89.80
2022-09-21T16:15:29.135Z,89.60
2022-09-21T16:17:58.558Z,89.30
2022-09-21T16:20:26.022Z,89.90
2022-09-21T16:23:02.904Z,90.30
2022-09-21T16:25:32.497Z,90.60
2022-09-21T16:28:03.526Z,91.40
2022-09-21T16:30:43.974Z,91.70
2022-09-21T16:33:29.319Z,92.20
2022-09-21T16:35:58.749Z,92.90
2022-09-21T16:38:26.247Z,93.30
2022-09-21T16:40:54.017Z,91.40
2022-09-21T16:43:23.151Z,93.00
2022-09-21T16:45:49.647Z,94.00
2022-09-21T16:48:16.131Z,93.80
2022-09-21T16:50:46.254Z,94.30
2022-09-21T16:53:13.046Z,94.70
2022-09-21T16:55:42.799Z,94.80
2022-09-21T16:58:09.528Z,95.10
2022-09-21T17:00:38.884Z,95.40
2022-09-21T17:03:05.470Z,95.70
2022-09-21T17:05:31.962Z,96.00
2022-09-21T17:07:58.990Z,96.20
2022-09-21T17:10:28.950Z,96.50
2022-09-21T17:12:59.147Z,96.70
2022-09-21T17:15:26.732Z,96.80
2022-09-21T17:17:53.260Z,97.00
2022-09-21T17:20:22.478Z,97.10
2022-09-21T17:22:48.982Z,97.30
2022-09-21T17:25:15.503Z,97.40
2022-09-21T17:27:45.033Z,97.60
2022-09-21T17:30:13.078Z,97.70
2022-09-21T17:32:42.373Z,97.90
2022-09-21T17:35:12.379Z,97.90
2022-09-21T17:37:38.925Z,98.10
2022-09-21T17:40:10.527Z,98.30
2022-09-21T17:42:41.657Z,98.30
2022-09-21T17:45:12.317Z,98.40
2022-09-21T17:47:39.375Z,98.60
2022-09-21T17:50:12.036Z,98.60
2022-09-21T17:52:57.779Z,98.90
2022-09-21T17:55:24.580Z,99.00
2022-09-21T17:58:09.889Z,99.00
2022-09-21T18:00:56.961Z,99.30
2022-09-21T18:03:28.046Z,99.60
2022-09-21T18:06:00.629Z,99.50
2022-09-21T18:08:28.588Z,99.70
2022-09-21T18:10:55.421Z,99.60
2022-09-21T18:13:34.270Z,99.70
2022-09-21T18:16:19.692Z,99.80
2022-09-21T18:18:51.154Z,99.90
2022-09-21T18:21:21.692Z,99.90
2022-09-21T18:24:07.029Z,99.90
2022-09-21T18:26:34.738Z,99.90
2022-09-21T18:29:12.573Z,99.90
2022-09-21T18:31:48.243Z,99.90
2022-09-21T18:34:17.478Z,99.90
2022-09-21T18:36:55.884Z,99.90
2022-09-21T18:39:27.279Z,99.90
2022-09-21T18:42:05.799Z,99.90
2022-09-21T18:44:39.055Z,99.90
2022-09-21T18:47:28.559Z,99.90
2022-09-21T18:49:57.814Z,99.90
2022-09-21T18:52:36.285Z,99.90
2022-09-21T18:55:11.402Z,99.90
2022-09-21T18:57:38.053Z,99.90
2022-09-21T19:00:05.178Z,99.90
2022-09-21T19:02:31.811Z,99.90
2022-09-21T19:04:59.059Z,99.90
2022-09-21T19:07:29.527Z,99.90
2022-09-21T19:09:55.983Z,99.90
2022-09-21T19:12:40.983Z,99.90
2022-09-21T19:18:19.946Z,99.90
2022-09-21T19:20:46.650Z,99.90
2022-09-21T19:23:13.124Z,99.90
2022-09-21T19:25:50.017Z,99.90
2022-09-21T19:28:25.758Z,99.90
2022-09-21T19:30:58.291Z,99.90
2022-09-21T19:33:48.983Z,99.90
2022-09-21T19:36:15.774Z,99.90
2022-09-21T19:38:42.338Z,99.90
2022-09-21T19:41:17.668Z,99.90
2022-09-21T19:43:51.238Z,99.90
2022-09-21T19:46:33.325Z,99.90
2022-09-21T19:49:05.179Z,99.90
2022-09-21T19:51:40.443Z,99.90
2022-09-21T19:54:33.073Z,99.90
2022-09-21T19:57:18.213Z,99.90
2022-09-21T19:59:44.974Z,99.90
2022-09-21T20:02:12.851Z,99.90
2022-09-21T20:04:44.437Z,99.90
2022-09-21T20:07:18.808Z,99.90
2022-09-21T20:09:49.314Z,99.90
2022-09-21T20:12:23.742Z,99.90
2022-09-21T20:14:53.843Z,99.90
2022-09-21T20:17:33.715Z,99.90
2022-09-21T20:20:08.376Z,99.90
2022-09-21T20:22:36.460Z,99.90
2022-09-21T20:25:07.391Z,99.90
2022-09-21T20:27:36.989Z,99.90
2022-09-21T20:30:04.722Z,99.90
2022-09-21T20:32:31.951Z,99.90
2022-09-21T20:34:58.955Z,99.90
2022-09-21T20:37:27.106Z,99.90
2022-09-21T20:39:53.874Z,99.90
2022-09-21T20:42:24.712Z,99.90
2022-09-21T20:44:51.621Z,99.90
2022-09-21T20:47:19.121Z,99.90
2022-09-21T20:49:49.955Z,99.90
2022-09-21T20:52:17.255Z,99.90
2022-09-21T20:54:49.353Z,99.90
2022-09-21T20:57:20.139Z,99.90
2022-09-21T20:59:47.102Z,99.90
2022-09-21T21:02:15.071Z,99.90
2022-09-21T21:04:41.557Z,99.90
2022-09-21T21:07:08.248Z,99.90
2022-09-21T21:09:34.786Z,99.90
2022-09-21T21:12:01.830Z,99.90
2022-09-21T21:14:29.814Z,99.90
2022-09-21T21:16:56.441Z,99.90
2022-09-21T21:19:23.256Z,99.90
2022-09-21T21:21:49.803Z,99.90
2022-09-21T21:24:35.076Z,99.90
2022-09-21T21:27:03.057Z,99.90
2022-09-21T21:29:30.298Z,99.90
2022-09-21T21:31:56.860Z,99.90
2022-09-21T21:34:23.431Z,99.90
2022-09-21T21:36:49.951Z,99.90
2022-09-21T21:39:16.442Z,99.90
2022-09-21T21:41:43.551Z,99.90
2022-09-21T21:44:11.360Z,99.90
2022-09-21T21:46:37.883Z,99.90
2022-09-21T21:49:04.632Z,99.90
2022-09-21T21:51:31.363Z,99.90
2022-09-21T21:53:57.938Z,99.90
2022-09-21T21:56:24.445Z,99.90
2022-09-21T21:58:51.786Z,99.90
2022-09-21T22:01:21.294Z,99.90
2022-09-21T22:03:51.830Z,99.90
2022-09-21T22:06:18.532Z,99.90
2022-09-21T22:08:45.047Z,99.90
2022-09-21T22:11:11.570Z,99.90
2022-09-21T22:13:38.684Z,99.90
2022-09-21T22:16:06.585Z,99.90
2022-09-21T22:18:33.802Z,99.90
2022-09-21T22:21:07.529Z,99.90
2022-09-21T22:23:34.387Z,99.90
2022-09-21T22:26:05.481Z,99.90
2022-09-21T22:28:32.408Z,99.90
2022-09-21T22:30:59.807Z,99.90
2022-09-21T22:33:28.912Z,99.90
2022-09-21T22:36:06.257Z,99.90
2022-09-21T22:38:33.364Z,99.90
2022-09-21T22:41:03.951Z,99.90
2022-09-21T22:43:30.984Z,99.90
2022-09-21T22:45:57.737Z,99.90
2022-09-21T22:48:24.799Z,99.90
2022-09-21T22:50:51.597Z,99.90
2022-09-21T22:53:18.171Z,99.90
2022-09-21T22:55:46.750Z,99.90
2022-09-21T22:58:13.402Z,99.90
2022-09-21T23:00:41.113Z,99.90
2022-09-21T23:03:07.715Z,99.90
2022-09-21T23:05:34.234Z,99.90
2022-09-21T23:08:00.826Z,99.90
2022-09-21T23:10:27.331Z,99.90
2022-09-21T23:12:53.847Z,99.90
2022-09-21T23:15:20.557Z,99.90
2022-09-21T23:17:47.077Z,99.90
2022-09-21T23:20:14.767Z,99.90
2022-09-21T23:22:41.329Z,99.90
2022-09-21T23:25:08.069Z,99.90
2022-09-21T23:27:34.635Z,99.90
2022-09-21T23:30:01.193Z,99.90
2022-09-21T23:32:27.785Z,99.90
2022-09-21T23:34:54.464Z,99.90
2022-09-21T23:37:21.043Z,99.90
2022-09-21T23:39:48.281Z,99.90
2022-09-21T23:42:14.835Z,99.90
2022-09-21T23:44:41.863Z,99.90
2022-09-21T23:47:08.514Z,99.90
2022-09-21T23:49:35.122Z,99.90
2022-09-21T23:52:02.313Z,99.90
2022-09-21T23:54:28.805Z,99.90
2022-09-21T23:56:55.321Z,99.90
2022-09-21T23:59:21.870Z,99.90
